sensor_id;sensor_type;location;lat;lon;timestamp;P1;durP1;ratioP1;P2;durP2;ratioP2
44434;SDS011;30138;20.964;105.830;2022-08-19T00:01:59;13.77;;;8.43;;
44434;SDS011;30138;20.964;105.830;2022-08-19T00:07:07;13.20;;;7.63;;
44434;SDS011;30138;20.964;105.830;2022-08-19T00:12:16;12.55;;;8.35;;
44434;SDS011;30138;20.964;105.830;2022-08-19T00:17:23;14.35;;;8.00;;
44434;SDS011;30138;20.964;105.830;2022-08-19T00:22:30;14.00;;;8.60;;
44434;SDS011;30138;20.964;105.830;2022-08-19T00:27:39;12.00;;;8.05;;
44434;SDS011;30138;20.964;105.830;2022-08-19T00:32:46;12.55;;;8.48;;
44434;SDS011;30138;20.964;105.830;2022-08-19T00:37:56;14.23;;;8.52;;
44434;SDS011;30138;20.964;105.830;2022-08-19T00:43:09;12.70;;;8.55;;
44434;SDS011;30138;20.964;105.830;2022-08-19T00:48:17;13.27;;;8.25;;
44434;SDS011;30138;20.964;105.830;2022-08-19T00:53:26;13.85;;;8.95;;
44434;SDS011;30138;20.964;105.830;2022-08-19T00:58:37;14.32;;;9.02;;
44434;SDS011;30138;20.964;105.830;2022-08-19T01:03:44;15.38;;;8.68;;
44434;SDS011;30138;20.964;105.830;2022-08-19T01:08:52;13.20;;;9.57;;
44434;SDS011;30138;20.964;105.830;2022-08-19T01:14:02;14.50;;;9.10;;
44434;SDS011;30138;20.964;105.830;2022-08-19T01:19:21;16.97;;;10.03;;
44434;SDS011;30138;20.964;105.830;2022-08-19T01:24:35;17.80;;;9.93;;
44434;SDS011;30138;20.964;105.830;2022-08-19T01:29:43;14.20;;;9.48;;
44434;SDS011;30138;20.964;105.830;2022-08-19T01:34:50;14.35;;;9.77;;
44434;SDS011;30138;20.964;105.830;2022-08-19T01:39:59;14.18;;;9.95;;
44434;SDS011;30138;20.964;105.830;2022-08-19T01:45:07;14.90;;;9.93;;
44434;SDS011;30138;20.964;105.830;2022-08-19T01:50:15;16.48;;;10.05;;
44434;SDS011;30138;20.964;105.830;2022-08-19T01:55:23;14.65;;;10.40;;
44434;SDS011;30138;20.964;105.830;2022-08-19T02:00:31;17.65;;;10.15;;
44434;SDS011;30138;20.964;105.830;2022-08-19T02:05:39;15.88;;;10.70;;
44434;SDS011;30138;20.964;105.830;2022-08-19T02:10:50;17.67;;;10.93;;
44434;SDS011;30138;20.964;105.830;2022-08-19T02:15:57;15.40;;;10.65;;
44434;SDS011;30138;20.964;105.830;2022-08-19T02:21:05;17.42;;;12.35;;
44434;SDS011;30138;20.964;105.830;2022-08-19T02:26:14;19.80;;;12.35;;
44434;SDS011;30138;20.964;105.830;2022-08-19T02:31:22;20.15;;;12.82;;
44434;SDS011;30138;20.964;105.830;2022-08-19T02:36:30;19.27;;;12.93;;
44434;SDS011;30138;20.964;105.830;2022-08-19T02:41:39;22.23;;;13.77;;
44434;SDS011;30138;20.964;105.830;2022-08-19T02:46:47;19.40;;;12.65;;
44434;SDS011;30138;20.964;105.830;2022-08-19T02:51:54;22.42;;;13.63;;
44434;SDS011;30138;20.964;105.830;2022-08-19T02:57:03;20.92;;;13.75;;
44434;SDS011;30138;20.964;105.830;2022-08-19T03:02:10;20.13;;;14.50;;
44434;SDS011;30138;20.964;105.830;2022-08-19T03:07:17;25.42;;;15.73;;
44434;SDS011;30138;20.964;105.830;2022-08-19T03:12:26;23.58;;;16.08;;
44434;SDS011;30138;20.964;105.830;2022-08-19T03:17:33;23.90;;;16.77;;
44434;SDS011;30138;20.964;105.830;2022-08-19T03:22:41;24.25;;;16.70;;
44434;SDS011;30138;20.964;105.830;2022-08-19T03:27:50;23.88;;;17.02;;
44434;SDS011;30138;20.964;105.830;2022-08-19T03:33:00;26.85;;;20.60;;
44434;SDS011;30138;20.964;105.830;2022-08-19T03:38:07;49.78;;;34.13;;
44434;SDS011;30138;20.964;105.830;2022-08-19T03:43:15;50.67;;;34.65;;
44434;SDS011;30138;20.964;105.830;2022-08-19T03:48:22;47.35;;;33.13;;
44434;SDS011;30138;20.964;105.830;2022-08-19T03:53:30;48.90;;;33.35;;
44434;SDS011;30138;20.964;105.830;2022-08-19T03:58:40;47.88;;;31.88;;
44434;SDS011;30138;20.964;105.830;2022-08-19T04:03:49;50.17;;;33.35;;
44434;SDS011;30138;20.964;105.830;2022-08-19T04:08:56;45.20;;;31.45;;
44434;SDS011;30138;20.964;105.830;2022-08-19T04:14:08;45.90;;;31.88;;
44434;SDS011;30138;20.964;105.830;2022-08-19T04:19:16;44.95;;;31.33;;
44434;SDS011;30138;20.964;105.830;2022-08-19T04:24:24;42.55;;;31.42;;
44434;SDS011;30138;20.964;105.830;2022-08-19T04:29:34;44.63;;;31.08;;
44434;SDS011;30138;20.964;105.830;2022-08-19T04:34:42;40.30;;;30.70;;
44434;SDS011;30138;20.964;105.830;2022-08-19T04:39:49;41.67;;;32.00;;
44434;SDS011;30138;20.964;105.830;2022-08-19T04:45:14;44.92;;;31.88;;
44434;SDS011;30138;20.964;105.830;2022-08-19T04:50:21;39.67;;;32.17;;
44434;SDS011;30138;20.964;105.830;2022-08-19T04:55:28;43.15;;;33.83;;
44434;SDS011;30138;20.964;105.830;2022-08-19T05:00:39;46.70;;;33.80;;
44434;SDS011;30138;20.964;105.830;2022-08-19T05:05:47;41.45;;;31.80;;
44434;SDS011;30138;20.964;105.830;2022-08-19T05:10:54;44.60;;;33.30;;
44434;SDS011;30138;20.964;105.830;2022-08-19T05:16:03;43.88;;;33.15;;
44434;SDS011;30138;20.964;105.830;2022-08-19T05:21:11;47.33;;;33.55;;
44434;SDS011;30138;20.964;105.830;2022-08-19T05:26:37;42.08;;;33.30;;
44434;SDS011;30138;20.964;105.830;2022-08-19T05:31:49;43.87;;;33.07;;
44434;SDS011;30138;20.964;105.830;2022-08-19T05:36:59;44.45;;;33.00;;
44434;SDS011;30138;20.964;105.830;2022-08-19T05:42:09;41.88;;;32.72;;
44434;SDS011;30138;20.964;105.830;2022-08-19T05:47:18;40.22;;;32.47;;
44434;SDS011;30138;20.964;105.830;2022-08-19T05:52:26;41.42;;;31.88;;
44434;SDS011;30138;20.964;105.830;2022-08-19T05:57:33;41.42;;;33.03;;
44434;SDS011;30138;20.964;105.830;2022-08-19T06:02:42;41.00;;;31.48;;
44434;SDS011;30138;20.964;105.830;2022-08-19T06:07:49;39.33;;;32.00;;
44434;SDS011;30138;20.964;105.830;2022-08-19T06:12:56;36.65;;;30.05;;
44434;SDS011;30138;20.964;105.830;2022-08-19T06:18:05;40.20;;;30.67;;
44434;SDS011;30138;20.964;105.830;2022-08-19T06:23:12;37.50;;;29.95;;
44434;SDS011;30138;20.964;105.830;2022-08-19T06:28:19;37.08;;;29.50;;
44434;SDS011;30138;20.964;105.830;2022-08-19T06:33:31;35.28;;;29.02;;
44434;SDS011;30138;20.964;105.830;2022-08-19T06:38:38;38.28;;;29.23;;
44434;SDS011;30138;20.964;105.830;2022-08-19T06:43:45;32.78;;;27.85;;
44434;SDS011;30138;20.964;105.830;2022-08-19T06:48:55;36.08;;;28.40;;
44434;SDS011;30138;20.964;105.830;2022-08-19T06:54:02;34.15;;;27.73;;
44434;SDS011;30138;20.964;105.830;2022-08-19T06:59:11;32.88;;;27.58;;
44434;SDS011;30138;20.964;105.830;2022-08-19T07:04:22;31.83;;;26.20;;
44434;SDS011;30138;20.964;105.830;2022-08-19T07:09:33;32.53;;;26.80;;
44434;SDS011;30138;20.964;105.830;2022-08-19T07:14:41;33.97;;;26.85;;
44434;SDS011;30138;20.964;105.830;2022-08-19T07:19:51;32.53;;;26.73;;
44434;SDS011;30138;20.964;105.830;2022-08-19T07:24:58;29.77;;;25.10;;
44434;SDS011;30138;20.964;105.830;2022-08-19T07:30:06;47.00;;;37.10;;
44434;SDS011;30138;20.964;105.830;2022-08-19T07:35:16;60.28;;;45.72;;
44434;SDS011;30138;20.964;105.830;2022-08-19T07:40:23;66.03;;;51.35;;
44434;SDS011;30138;20.964;105.830;2022-08-19T07:45:31;68.13;;;50.60;;
44434;SDS011;30138;20.964;105.830;2022-08-19T07:50:40;62.15;;;48.05;;
44434;SDS011;30138;20.964;105.830;2022-08-19T07:55:47;60.10;;;47.53;;
44434;SDS011;30138;20.964;105.830;2022-08-19T08:00:54;57.28;;;45.13;;
44434;SDS011;30138;20.964;105.830;2022-08-19T08:06:03;57.63;;;45.42;;
44434;SDS011;30138;20.964;105.830;2022-08-19T08:11:27;51.97;;;41.03;;
44434;SDS011;30138;20.964;105.830;2022-08-19T08:16:34;52.83;;;42.45;;
44434;SDS011;30138;20.964;105.830;2022-08-19T08:21:45;49.50;;;40.80;;
44434;SDS011;30138;20.964;105.830;2022-08-19T08:26:53;48.30;;;39.33;;
44434;SDS011;30138;20.964;105.830;2022-08-19T08:32:00;48.53;;;39.75;;
44434;SDS011;30138;20.964;105.830;2022-08-19T08:37:10;46.33;;;37.72;;
44434;SDS011;30138;20.964;105.830;2022-08-19T08:42:19;48.80;;;40.05;;
44434;SDS011;30138;20.964;105.830;2022-08-19T08:47:34;46.92;;;38.72;;
44434;SDS011;30138;20.964;105.830;2022-08-19T08:52:46;49.47;;;39.95;;
44434;SDS011;30138;20.964;105.830;2022-08-19T08:58:00;46.72;;;36.72;;
44434;SDS011;30138;20.964;105.830;2022-08-19T09:03:14;47.03;;;36.17;;
44434;SDS011;30138;20.964;105.830;2022-08-19T09:08:29;47.47;;;37.72;;
44434;SDS011;30138;20.964;105.830;2022-08-19T09:13:49;45.10;;;36.45;;
44434;SDS011;30138;20.964;105.830;2022-08-19T09:19:07;43.63;;;35.37;;
44434;SDS011;30138;20.964;105.830;2022-08-19T09:24:17;41.53;;;34.20;;
44434;SDS011;30138;20.964;105.830;2022-08-19T09:29:24;41.83;;;33.53;;
44434;SDS011;30138;20.964;105.830;2022-08-19T09:34:31;44.83;;;35.05;;
44434;SDS011;30138;20.964;105.830;2022-08-19T09:39:41;54.67;;;43.00;;
44434;SDS011;30138;20.964;105.830;2022-08-19T09:44:48;61.35;;;47.20;;
44434;SDS011;30138;20.964;105.830;2022-08-19T09:49:55;59.28;;;47.42;;
44434;SDS011;30138;20.964;105.830;2022-08-19T09:55:05;56.20;;;44.08;;
44434;SDS011;30138;20.964;105.830;2022-08-19T10:00:13;65.87;;;49.67;;
44434;SDS011;30138;20.964;105.830;2022-08-19T10:05:22;72.70;;;54.78;;
44434;SDS011;30138;20.964;105.830;2022-08-19T10:10:46;72.68;;;55.53;;
44434;SDS011;30138;20.964;105.830;2022-08-19T10:15:55;88.57;;;67.88;;
44434;SDS011;30138;20.964;105.830;2022-08-19T10:21:11;108.50;;;73.30;;
44434;SDS011;30138;20.964;105.830;2022-08-19T10:26:24;97.60;;;76.70;;
44434;SDS011;30138;20.964;105.830;2022-08-19T10:31:34;97.78;;;77.05;;
44434;SDS011;30138;20.964;105.830;2022-08-19T10:36:41;95.70;;;73.93;;
44434;SDS011;30138;20.964;105.830;2022-08-19T10:41:50;90.80;;;71.38;;
44434;SDS011;30138;20.964;105.830;2022-08-19T10:46:58;89.95;;;68.68;;
44434;SDS011;30138;20.964;105.830;2022-08-19T10:52:05;85.25;;;70.57;;
44434;SDS011;30138;20.964;105.830;2022-08-19T10:57:27;99.88;;;72.78;;
44434;SDS011;30138;20.964;105.830;2022-08-19T11:02:36;94.10;;;72.63;;
44434;SDS011;30138;20.964;105.830;2022-08-19T11:07:44;91.43;;;71.35;;
44434;SDS011;30138;20.964;105.830;2022-08-19T11:12:53;91.05;;;71.43;;
44434;SDS011;30138;20.964;105.830;2022-08-19T11:18:02;90.47;;;73.90;;
44434;SDS011;30138;20.964;105.830;2022-08-19T11:23:10;96.60;;;75.40;;
44434;SDS011;30138;20.964;105.830;2022-08-19T11:28:18;89.85;;;72.35;;
44434;SDS011;30138;20.964;105.830;2022-08-19T11:33:25;95.53;;;74.28;;
44434;SDS011;30138;20.964;105.830;2022-08-19T11:38:33;86.32;;;71.85;;
44434;SDS011;30138;20.964;105.830;2022-08-19T11:43:42;94.35;;;72.53;;
44434;SDS011;30138;20.964;105.830;2022-08-19T11:48:49;92.03;;;74.28;;
44434;SDS011;30138;20.964;105.830;2022-08-19T11:53:56;95.22;;;73.40;;
44434;SDS011;30138;20.964;105.830;2022-08-19T11:59:07;101.05;;;77.47;;
44434;SDS011;30138;20.964;105.830;2022-08-19T12:04:14;95.35;;;77.57;;
44434;SDS011;30138;20.964;105.830;2022-08-19T12:09:21;102.35;;;81.43;;
44434;SDS011;30138;20.964;105.830;2022-08-19T12:14:30;100.15;;;77.95;;
44434;SDS011;30138;20.964;105.830;2022-08-19T12:19:38;99.60;;;77.57;;
44434;SDS011;30138;20.964;105.830;2022-08-19T12:24:46;100.10;;;78.68;;
44434;SDS011;30138;20.964;105.830;2022-08-19T12:29:56;97.15;;;78.43;;
44434;SDS011;30138;20.964;105.830;2022-08-19T12:35:04;97.22;;;77.43;;
44434;SDS011;30138;20.964;105.830;2022-08-19T12:40:13;97.47;;;75.70;;
44434;SDS011;30138;20.964;105.830;2022-08-19T12:45:23;87.78;;;73.95;;
44434;SDS011;30138;20.964;105.830;2022-08-19T12:50:30;88.32;;;71.20;;
44434;SDS011;30138;20.964;105.830;2022-08-19T12:55:37;90.35;;;67.82;;
44434;SDS011;30138;20.964;105.830;2022-08-19T13:00:46;80.47;;;64.70;;
44434;SDS011;30138;20.964;105.830;2022-08-19T13:05:53;76.93;;;59.85;;
44434;SDS011;30138;20.964;105.830;2022-08-19T13:11:06;81.30;;;60.05;;
44434;SDS011;30138;20.964;105.830;2022-08-19T13:16:18;74.28;;;56.33;;
44434;SDS011;30138;20.964;105.830;2022-08-19T13:21:25;71.28;;;54.65;;
44434;SDS011;30138;20.964;105.830;2022-08-19T13:26:32;63.28;;;51.80;;
44434;SDS011;30138;20.964;105.830;2022-08-19T13:31:41;69.15;;;52.70;;
44434;SDS011;30138;20.964;105.830;2022-08-19T13:37:05;60.80;;;46.95;;
44434;SDS011;30138;20.964;105.830;2022-08-19T13:42:12;56.30;;;44.67;;
44434;SDS011;30138;20.964;105.830;2022-08-19T13:47:21;51.40;;;40.40;;
44434;SDS011;30138;20.964;105.830;2022-08-19T13:52:28;47.92;;;37.22;;
44434;SDS011;30138;20.964;105.830;2022-08-19T13:57:36;45.28;;;30.60;;
44434;SDS011;30138;20.964;105.830;2022-08-19T14:02:45;41.25;;;28.48;;
44434;SDS011;30138;20.964;105.830;2022-08-19T14:07:55;36.05;;;27.13;;
44434;SDS011;30138;20.964;105.830;2022-08-19T14:13:03;35.65;;;24.92;;
44434;SDS011;30138;20.964;105.830;2022-08-19T14:18:12;31.23;;;23.92;;
44434;SDS011;30138;20.964;105.830;2022-08-19T14:23:20;32.47;;;22.58;;
44434;SDS011;30138;20.964;105.830;2022-08-19T14:28:27;29.55;;;21.13;;
44434;SDS011;30138;20.964;105.830;2022-08-19T14:33:36;31.92;;;20.52;;
44434;SDS011;30138;20.964;105.830;2022-08-19T14:38:44;29.83;;;19.90;;
44434;SDS011;30138;20.964;105.830;2022-08-19T14:43:51;25.83;;;19.35;;
44434;SDS011;30138;20.964;105.830;2022-08-19T14:49:01;25.73;;;17.85;;
44434;SDS011;30138;20.964;105.830;2022-08-19T14:54:09;25.30;;;18.33;;
44434;SDS011;30138;20.964;105.830;2022-08-19T14:59:16;24.27;;;16.55;;
44434;SDS011;30138;20.964;105.830;2022-08-19T15:04:25;23.10;;;16.35;;
44434;SDS011;30138;20.964;105.830;2022-08-19T15:09:32;23.40;;;16.02;;
44434;SDS011;30138;20.964;105.830;2022-08-19T15:14:39;23.77;;;16.17;;
44434;SDS011;30138;20.964;105.830;2022-08-19T15:19:53;22.52;;;16.10;;
44434;SDS011;30138;20.964;105.830;2022-08-19T15:25:01;22.55;;;15.05;;
44434;SDS011;30138;20.964;105.830;2022-08-19T15:30:09;20.40;;;13.88;;
44434;SDS011;30138;20.964;105.830;2022-08-19T15:35:24;21.80;;;13.95;;
44434;SDS011;30138;20.964;105.830;2022-08-19T15:40:31;20.55;;;14.07;;
44434;SDS011;30138;20.964;105.830;2022-08-19T15:45:39;19.27;;;13.65;;
44434;SDS011;30138;20.964;105.830;2022-08-19T15:50:48;16.85;;;11.95;;
44434;SDS011;30138;20.964;105.830;2022-08-19T15:55:55;18.40;;;13.10;;
44434;SDS011;30138;20.964;105.830;2022-08-19T16:01:03;19.67;;;12.55;;
44434;SDS011;30138;20.964;105.830;2022-08-19T16:06:31;19.25;;;12.82;;
44434;SDS011;30138;20.964;105.830;2022-08-19T16:11:38;17.00;;;12.07;;
44434;SDS011;30138;20.964;105.830;2022-08-19T16:16:46;19.27;;;12.07;;
44434;SDS011;30138;20.964;105.830;2022-08-19T16:21:55;15.27;;;10.85;;
44434;SDS011;30138;20.964;105.830;2022-08-19T16:27:02;15.73;;;11.05;;
44434;SDS011;30138;20.964;105.830;2022-08-19T16:32:09;15.45;;;10.60;;
44434;SDS011;30138;20.964;105.830;2022-08-19T16:37:19;17.35;;;11.07;;
44434;SDS011;30138;20.964;105.830;2022-08-19T16:42:26;13.55;;;9.95;;
44434;SDS011;30138;20.964;105.830;2022-08-19T16:47:35;14.77;;;9.63;;
44434;SDS011;30138;20.964;105.830;2022-08-19T16:52:44;14.25;;;9.75;;
44434;SDS011;30138;20.964;105.830;2022-08-19T16:57:52;14.93;;;8.93;;
44434;SDS011;30138;20.964;105.830;2022-08-19T17:03:04;12.75;;;9.02;;
44434;SDS011;30138;20.964;105.830;2022-08-19T17:08:14;16.55;;;9.23;;
44434;SDS011;30138;20.964;105.830;2022-08-19T17:13:23;22.13;;;8.93;;
44434;SDS011;30138;20.964;105.830;2022-08-19T17:18:35;13.57;;;9.30;;
44434;SDS011;30138;20.964;105.830;2022-08-19T17:23:44;12.48;;;8.70;;
44434;SDS011;30138;20.964;105.830;2022-08-19T17:28:52;13.85;;;8.43;;
44434;SDS011;30138;20.964;105.830;2022-08-19T17:34:00;11.07;;;7.97;;
44434;SDS011;30138;20.964;105.830;2022-08-19T17:39:09;11.10;;;7.72;;
44434;SDS011;30138;20.964;105.830;2022-08-19T17:44:16;15.38;;;7.65;;
44434;SDS011;30138;20.964;105.830;2022-08-19T17:49:23;11.00;;;7.38;;
44434;SDS011;30138;20.964;105.830;2022-08-19T17:54:32;9.30;;;7.70;;
44434;SDS011;30138;20.964;105.830;2022-08-19T17:59:39;11.93;;;7.30;;
44434;SDS011;30138;20.964;105.830;2022-08-19T18:04:47;10.93;;;7.88;;
44434;SDS011;30138;20.964;105.830;2022-08-19T18:09:55;13.27;;;7.95;;
44434;SDS011;30138;20.964;105.830;2022-08-19T18:15:03;12.70;;;7.80;;
44434;SDS011;30138;20.964;105.830;2022-08-19T18:20:13;13.13;;;8.02;;
44434;SDS011;30138;20.964;105.830;2022-08-19T18:25:23;11.10;;;7.78;;
44434;SDS011;30138;20.964;105.830;2022-08-19T18:30:31;11.30;;;8.02;;
44434;SDS011;30138;20.964;105.830;2022-08-19T18:35:39;14.13;;;8.13;;
44434;SDS011;30138;20.964;105.830;2022-08-19T18:40:50;10.85;;;7.57;;
44434;SDS011;30138;20.964;105.830;2022-08-19T18:46:13;11.73;;;7.95;;
44434;SDS011;30138;20.964;105.830;2022-08-19T18:51:36;11.63;;;8.27;;
44434;SDS011;30138;20.964;105.830;2022-08-19T18:56:45;9.85;;;7.28;;
44434;SDS011;30138;20.964;105.830;2022-08-19T19:01:56;11.00;;;7.90;;
44434;SDS011;30138;20.964;105.830;2022-08-19T19:07:04;14.40;;;8.23;;
44434;SDS011;30138;20.964;105.830;2022-08-19T19:12:14;13.20;;;8.43;;
44434;SDS011;30138;20.964;105.830;2022-08-19T19:17:21;12.13;;;8.40;;
44434;SDS011;30138;20.964;105.830;2022-08-19T19:22:29;11.45;;;8.18;;
44434;SDS011;30138;20.964;105.830;2022-08-19T19:27:38;12.35;;;7.85;;
44434;SDS011;30138;20.964;105.830;2022-08-19T19:32:45;15.57;;;8.68;;
44434;SDS011;30138;20.964;105.830;2022-08-19T19:37:52;11.52;;;7.85;;
44434;SDS011;30138;20.964;105.830;2022-08-19T19:43:01;11.50;;;8.20;;
44434;SDS011;30138;20.964;105.830;2022-08-19T19:48:08;11.90;;;8.10;;
44434;SDS011;30138;20.964;105.830;2022-08-19T19:53:16;11.93;;;8.57;;
44434;SDS011;30138;20.964;105.830;2022-08-19T19:58:27;11.50;;;8.35;;
44434;SDS011;30138;20.964;105.830;2022-08-19T20:03:36;12.48;;;9.27;;
44434;SDS011;30138;20.964;105.830;2022-08-19T20:08:44;14.63;;;8.52;;
44434;SDS011;30138;20.964;105.830;2022-08-19T20:14:09;12.27;;;8.35;;
44434;SDS011;30138;20.964;105.830;2022-08-19T20:19:18;14.17;;;8.53;;
44434;SDS011;30138;20.964;105.830;2022-08-19T20:24:29;13.50;;;8.88;;
44434;SDS011;30138;20.964;105.830;2022-08-19T20:29:39;12.65;;;9.10;;
44434;SDS011;30138;20.964;105.830;2022-08-19T20:34:46;13.63;;;9.30;;
44434;SDS011;30138;20.964;105.830;2022-08-19T20:39:53;14.43;;;9.32;;
44434;SDS011;30138;20.964;105.830;2022-08-19T20:45:03;13.27;;;8.95;;
44434;SDS011;30138;20.964;105.830;2022-08-19T20:50:11;16.30;;;9.85;;
44434;SDS011;30138;20.964;105.830;2022-08-19T20:55:18;15.60;;;8.73;;
44434;SDS011;30138;20.964;105.830;2022-08-19T21:00:28;13.60;;;9.68;;
44434;SDS011;30138;20.964;105.830;2022-08-19T21:05:35;15.18;;;9.63;;
44434;SDS011;30138;20.964;105.830;2022-08-19T21:10:43;15.20;;;10.15;;
44434;SDS011;30138;20.964;105.830;2022-08-19T21:15:52;14.82;;;9.77;;
44434;SDS011;30138;20.964;105.830;2022-08-19T21:20:59;12.38;;;9.25;;
44434;SDS011;30138;20.964;105.830;2022-08-19T21:26:06;13.48;;;9.63;;
44434;SDS011;30138;20.964;105.830;2022-08-19T21:31:15;15.50;;;9.65;;
44434;SDS011;30138;20.964;105.830;2022-08-19T21:36:22;14.38;;;9.43;;
44434;SDS011;30138;20.964;105.830;2022-08-19T21:41:29;13.95;;;9.45;;
44434;SDS011;30138;20.964;105.830;2022-08-19T21:46:38;14.23;;;9.10;;
44434;SDS011;30138;20.964;105.830;2022-08-19T21:51:45;14.50;;;8.68;;
44434;SDS011;30138;20.964;105.830;2022-08-19T21:56:52;12.82;;;8.65;;
44434;SDS011;30138;20.964;105.830;2022-08-19T22:02:01;12.65;;;8.27;;
44434;SDS011;30138;20.964;105.830;2022-08-19T22:07:08;13.75;;;7.82;;
44434;SDS011;30138;20.964;105.830;2022-08-19T22:12:19;10.15;;;7.55;;
44434;SDS011;30138;20.964;105.830;2022-08-19T22:17:30;12.13;;;8.20;;
44434;SDS011;30138;20.964;105.830;2022-08-19T22:22:38;10.77;;;6.63;;
44434;SDS011;30138;20.964;105.830;2022-08-19T22:27:53;10.82;;;7.43;;
44434;SDS011;30138;20.964;105.830;2022-08-19T22:33:02;9.68;;;6.65;;
44434;SDS011;30138;20.964;105.830;2022-08-19T22:38:13;9.05;;;6.47;;
44434;SDS011;30138;20.964;105.830;2022-08-19T22:43:21;8.82;;;6.10;;
44434;SDS011;30138;20.964;105.830;2022-08-19T22:48:33;9.00;;;6.03;;
44434;SDS011;30138;20.964;105.830;2022-08-19T22:53:40;8.45;;;6.28;;
44434;SDS011;30138;20.964;105.830;2022-08-19T22:58:49;6.88;;;5.53;;
44434;SDS011;30138;20.964;105.830;2022-08-19T23:03:58;6.82;;;4.85;;
44434;SDS011;30138;20.964;105.830;2022-08-19T23:09:06;8.25;;;5.53;;
44434;SDS011;30138;20.964;105.830;2022-08-19T23:14:14;6.88;;;4.88;;
44434;SDS011;30138;20.964;105.830;2022-08-19T23:19:23;8.02;;;5.13;;
44434;SDS011;30138;20.964;105.830;2022-08-19T23:24:30;5.95;;;4.90;;
44434;SDS011;30138;20.964;105.830;2022-08-19T23:29:37;7.38;;;4.80;;
44434;SDS011;30138;20.964;105.830;2022-08-19T23:35:02;6.70;;;4.65;;
44434;SDS011;30138;20.964;105.830;2022-08-19T23:40:10;6.32;;;4.80;;
44434;SDS011;30138;20.964;105.830;2022-08-19T23:45:18;5.15;;;3.72;;
44434;SDS011;30138;20.964;105.830;2022-08-19T23:50:29;5.10;;;3.80;;
44434;SDS011;30138;20.964;105.830;2022-08-19T23:55:37;4.63;;;3.95;;
